sensor_id;sensor_type;location;lat;lon;timestamp;P1;durP1;ratioP1;P2;durP2;ratioP2
38435;SDS011;24220;48.168;14.024;2023-01-10T00:01:42;1.42;;;1.23;;
38435;SDS011;24220;48.168;14.024;2023-01-10T00:04:10;1.98;;;1.20;;
38435;SDS011;24220;48.168;14.024;2023-01-10T00:06:37;2.38;;;1.20;;
38435;SDS011;24220;48.168;14.024;2023-01-10T00:09:05;3.20;;;1.30;;
38435;SDS011;24220;48.168;14.024;2023-01-10T00:11:34;2.42;;;1.20;;
38435;SDS011;24220;48.168;14.024;2023-01-10T00:14:20;3.45;;;1.30;;
38435;SDS011;24220;48.168;14.024;2023-01-10T00:16:48;1.60;;;1.40;;
38435;SDS011;24220;48.168;14.024;2023-01-10T00:19:15;1.90;;;1.40;;
38435;SDS011;24220;48.168;14.024;2023-01-10T00:21:42;2.58;;;1.20;;
38435;SDS011;24220;48.168;14.024;2023-01-10T00:24:10;2.53;;;1.38;;
38435;SDS011;24220;48.168;14.024;2023-01-10T00:26:55;1.42;;;1.20;;
38435;SDS011;24220;48.168;14.024;2023-01-10T00:29:26;1.45;;;1.02;;
38435;SDS011;24220;48.168;14.024;2023-01-10T00:31:56;2.53;;;1.30;;
38435;SDS011;24220;48.168;14.024;2023-01-10T00:34:24;1.33;;;1.23;;
38435;SDS011;24220;48.168;14.024;2023-01-10T00:36:51;2.45;;;1.38;;
38435;SDS011;24220;48.168;14.024;2023-01-10T00:39:19;3.22;;;1.30;;
38435;SDS011;24220;48.168;14.024;2023-01-10T00:41:46;1.48;;;1.30;;
38435;SDS011;24220;48.168;14.024;2023-01-10T00:44:35;1.30;;;1.20;;
38435;SDS011;24220;48.168;14.024;2023-01-10T00:47:03;1.75;;;1.25;;
38435;SDS011;24220;48.168;14.024;2023-01-10T00:49:30;1.63;;;1.40;;
38435;SDS011;24220;48.168;14.024;2023-01-10T00:51:57;2.88;;;1.50;;
38435;SDS011;24220;48.168;14.024;2023-01-10T00:54:25;2.70;;;1.30;;
38435;SDS011;24220;48.168;14.024;2023-01-10T00:56:53;2.33;;;1.30;;
38435;SDS011;24220;48.168;14.024;2023-01-10T00:59:20;3.22;;;1.13;;
38435;SDS011;24220;48.168;14.024;2023-01-10T01:01:48;2.20;;;1.30;;
38435;SDS011;24220;48.168;14.024;2023-01-10T01:04:16;1.73;;;1.00;;
38435;SDS011;24220;48.168;14.024;2023-01-10T01:06:44;1.92;;;1.23;;
38435;SDS011;24220;48.168;14.024;2023-01-10T01:09:13;1.50;;;1.40;;
38435;SDS011;24220;48.168;14.024;2023-01-10T01:11:45;3.38;;;1.27;;
38435;SDS011;24220;48.168;14.024;2023-01-10T01:14:13;1.42;;;1.30;;
38435;SDS011;24220;48.168;14.024;2023-01-10T01:16:40;1.85;;;1.25;;
38435;SDS011;24220;48.168;14.024;2023-01-10T01:19:09;1.30;;;1.20;;
38435;SDS011;24220;48.168;14.024;2023-01-10T01:21:38;1.75;;;1.40;;
38435;SDS011;24220;48.168;14.024;2023-01-10T01:24:05;1.55;;;1.30;;
38435;SDS011;24220;48.168;14.024;2023-01-10T01:26:35;1.65;;;1.40;;
38435;SDS011;24220;48.168;14.024;2023-01-10T01:29:03;1.40;;;1.30;;
38435;SDS011;24220;48.168;14.024;2023-01-10T01:31:30;1.25;;;1.10;;
38435;SDS011;24220;48.168;14.024;2023-01-10T01:33:58;1.15;;;1.10;;
38435;SDS011;24220;48.168;14.024;2023-01-10T01:36:25;1.20;;;1.10;;
38435;SDS011;24220;48.168;14.024;2023-01-10T01:38:53;1.73;;;1.45;;
38435;SDS011;24220;48.168;14.024;2023-01-10T01:41:20;2.47;;;1.52;;
38435;SDS011;24220;48.168;14.024;2023-01-10T01:44:12;1.65;;;1.33;;
38435;SDS011;24220;48.168;14.024;2023-01-10T01:46:44;1.92;;;1.30;;
38435;SDS011;24220;48.168;14.024;2023-01-10T01:49:17;2.75;;;1.50;;
38435;SDS011;24220;48.168;14.024;2023-01-10T01:51:48;2.38;;;1.33;;
38435;SDS011;24220;48.168;14.024;2023-01-10T01:54:21;1.65;;;1.23;;
38435;SDS011;24220;48.168;14.024;2023-01-10T01:56:49;1.67;;;1.30;;
38435;SDS011;24220;48.168;14.024;2023-01-10T01:59:44;2.22;;;1.45;;
38435;SDS011;24220;48.168;14.024;2023-01-10T02:02:19;1.30;;;1.20;;
38435;SDS011;24220;48.168;14.024;2023-01-10T02:04:52;1.50;;;1.40;;
38435;SDS011;24220;48.168;14.024;2023-01-10T02:07:27;1.50;;;1.40;;
38435;SDS011;24220;48.168;14.024;2023-01-10T02:10:01;2.67;;;1.48;;
38435;SDS011;24220;48.168;14.024;2023-01-10T02:12:32;1.67;;;1.50;;
38435;SDS011;24220;48.168;14.024;2023-01-10T02:15:00;1.70;;;1.20;;
38435;SDS011;24220;48.168;14.024;2023-01-10T02:17:28;1.50;;;1.40;;
38435;SDS011;24220;48.168;14.024;2023-01-10T02:33:48;1.55;;;1.45;;
38435;SDS011;24220;48.168;14.024;2023-01-10T02:36:34;2.47;;;1.45;;
38435;SDS011;24220;48.168;14.024;2023-01-10T02:42:03;1.95;;;1.45;;
38435;SDS011;24220;48.168;14.024;2023-01-10T02:44:53;1.88;;;1.52;;
38435;SDS011;24220;48.168;14.024;2023-01-10T02:47:24;1.40;;;1.30;;
38435;SDS011;24220;48.168;14.024;2023-01-10T02:49:51;1.50;;;1.40;;
38435;SDS011;24220;48.168;14.024;2023-01-10T02:52:20;1.65;;;1.40;;
38435;SDS011;24220;48.168;14.024;2023-01-10T02:54:52;1.40;;;1.30;;
38435;SDS011;24220;48.168;14.024;2023-01-10T02:57:28;2.13;;;1.70;;
38435;SDS011;24220;48.168;14.024;2023-01-10T03:13:26;1.40;;;1.30;;
38435;SDS011;24220;48.168;14.024;2023-01-10T03:16:17;1.67;;;1.50;;
38435;SDS011;24220;48.168;14.024;2023-01-10T03:18:55;1.65;;;1.55;;
38435;SDS011;24220;48.168;14.024;2023-01-10T03:21:26;3.42;;;1.58;;
38435;SDS011;24220;48.168;14.024;2023-01-10T03:23:55;4.93;;;1.42;;
38435;SDS011;24220;48.168;14.024;2023-01-10T03:26:29;2.50;;;1.40;;
38435;SDS011;24220;48.168;14.024;2023-01-10T03:29:06;1.60;;;1.50;;
38435;SDS011;24220;48.168;14.024;2023-01-10T03:31:41;2.35;;;1.50;;
38435;SDS011;24220;48.168;14.024;2023-01-10T03:34:22;1.50;;;1.40;;
38435;SDS011;24220;48.168;14.024;2023-01-10T03:36:51;2.08;;;1.70;;
38435;SDS011;24220;48.168;14.024;2023-01-10T03:39:41;1.98;;;1.75;;
38435;SDS011;24220;48.168;14.024;2023-01-10T03:45:18;1.88;;;1.45;;
38435;SDS011;24220;48.168;14.024;2023-01-10T03:47:52;1.90;;;1.45;;
38435;SDS011;24220;48.168;14.024;2023-01-10T03:50:22;1.60;;;1.50;;
38435;SDS011;24220;48.168;14.024;2023-01-10T03:52:51;1.48;;;1.35;;
38435;SDS011;24220;48.168;14.024;2023-01-10T03:55:19;1.67;;;1.40;;
38435;SDS011;24220;48.168;14.024;2023-01-10T03:57:49;2.45;;;2.08;;
38435;SDS011;24220;48.168;14.024;2023-01-10T04:00:19;1.65;;;1.55;;
38435;SDS011;24220;48.168;14.024;2023-01-10T04:02:49;2.35;;;1.65;;
38435;SDS011;24220;48.168;14.024;2023-01-10T04:05:17;1.60;;;1.50;;
38435;SDS011;24220;48.168;14.024;2023-01-10T04:07:44;1.52;;;1.42;;
38435;SDS011;24220;48.168;14.024;2023-01-10T04:10:14;2.13;;;1.83;;
38435;SDS011;24220;48.168;14.024;2023-01-10T04:12:44;1.77;;;1.67;;
38435;SDS011;24220;48.168;14.024;2023-01-10T04:15:13;1.42;;;1.30;;
38435;SDS011;24220;48.168;14.024;2023-01-10T04:17:42;1.70;;;1.60;;
38435;SDS011;24220;48.168;14.024;2023-01-10T04:20:13;2.28;;;1.75;;
38435;SDS011;24220;48.168;14.024;2023-01-10T04:22:41;1.77;;;1.67;;
38435;SDS011;24220;48.168;14.024;2023-01-10T04:25:10;1.90;;;1.67;;
38435;SDS011;24220;48.168;14.024;2023-01-10T04:27:37;1.90;;;1.80;;
38435;SDS011;24220;48.168;14.024;2023-01-10T04:30:05;2.90;;;1.85;;
38435;SDS011;24220;48.168;14.024;2023-01-10T04:32:33;2.15;;;1.98;;
38435;SDS011;24220;48.168;14.024;2023-01-10T04:35:02;2.90;;;1.90;;
38435;SDS011;24220;48.168;14.024;2023-01-10T04:37:30;1.85;;;1.70;;
38435;SDS011;24220;48.168;14.024;2023-01-10T04:39:57;1.90;;;1.80;;
38435;SDS011;24220;48.168;14.024;2023-01-10T04:42:24;2.00;;;1.80;;
38435;SDS011;24220;48.168;14.024;2023-01-10T04:44:52;2.15;;;1.70;;
38435;SDS011;24220;48.168;14.024;2023-01-10T04:47:21;1.80;;;1.70;;
38435;SDS011;24220;48.168;14.024;2023-01-10T04:49:51;1.75;;;1.65;;
38435;SDS011;24220;48.168;14.024;2023-01-10T04:52:18;1.80;;;1.63;;
38435;SDS011;24220;48.168;14.024;2023-01-10T04:54:46;2.63;;;1.75;;
38435;SDS011;24220;48.168;14.024;2023-01-10T04:57:13;1.80;;;1.70;;
38435;SDS011;24220;48.168;14.024;2023-01-10T04:59:41;1.75;;;1.65;;
38435;SDS011;24220;48.168;14.024;2023-01-10T05:02:08;2.83;;;1.90;;
38435;SDS011;24220;48.168;14.024;2023-01-10T05:04:35;3.33;;;2.50;;
38435;SDS011;24220;48.168;14.024;2023-01-10T05:07:03;2.50;;;2.30;;
38435;SDS011;24220;48.168;14.024;2023-01-10T05:09:30;2.20;;;2.00;;
38435;SDS011;24220;48.168;14.024;2023-01-10T05:11:57;1.95;;;1.75;;
38435;SDS011;24220;48.168;14.024;2023-01-10T05:14:25;2.63;;;1.90;;
38435;SDS011;24220;48.168;14.024;2023-01-10T05:16:52;1.67;;;1.58;;
38435;SDS011;24220;48.168;14.024;2023-01-10T05:19:22;2.65;;;2.13;;
38435;SDS011;24220;48.168;14.024;2023-01-10T05:21:49;2.53;;;1.95;;
38435;SDS011;24220;48.168;14.024;2023-01-10T05:24:19;2.30;;;2.10;;
38435;SDS011;24220;48.168;14.024;2023-01-10T05:26:46;3.58;;;2.28;;
38435;SDS011;24220;48.168;14.024;2023-01-10T05:29:13;2.08;;;1.98;;
38435;SDS011;24220;48.168;14.024;2023-01-10T05:31:43;2.38;;;1.83;;
38435;SDS011;24220;48.168;14.024;2023-01-10T05:34:10;1.90;;;1.80;;
38435;SDS011;24220;48.168;14.024;2023-01-10T05:36:39;2.65;;;1.90;;
38435;SDS011;24220;48.168;14.024;2023-01-10T05:39:06;2.05;;;1.90;;
38435;SDS011;24220;48.168;14.024;2023-01-10T05:41:33;2.10;;;1.90;;
38435;SDS011;24220;48.168;14.024;2023-01-10T05:44:03;1.80;;;1.70;;
38435;SDS011;24220;48.168;14.024;2023-01-10T05:46:30;2.03;;;1.88;;
38435;SDS011;24220;48.168;14.024;2023-01-10T05:48:57;2.22;;;1.90;;
38435;SDS011;24220;48.168;14.024;2023-01-10T05:51:27;1.90;;;1.67;;
38435;SDS011;24220;48.168;14.024;2023-01-10T05:53:54;2.28;;;1.90;;
38435;SDS011;24220;48.168;14.024;2023-01-10T05:56:23;2.97;;;2.15;;
38435;SDS011;24220;48.168;14.024;2023-01-10T05:58:53;1.95;;;1.58;;
38435;SDS011;24220;48.168;14.024;2023-01-10T06:01:33;1.90;;;1.80;;
38435;SDS011;24220;48.168;14.024;2023-01-10T06:04:03;2.08;;;1.98;;
38435;SDS011;24220;48.168;14.024;2023-01-10T06:06:30;2.03;;;1.85;;
38435;SDS011;24220;48.168;14.024;2023-01-10T06:08:58;2.28;;;1.83;;
38435;SDS011;24220;48.168;14.024;2023-01-10T06:11:25;2.78;;;1.90;;
38435;SDS011;24220;48.168;14.024;2023-01-10T06:13:56;2.28;;;1.92;;
38435;SDS011;24220;48.168;14.024;2023-01-10T06:16:23;1.83;;;1.73;;
38435;SDS011;24220;48.168;14.024;2023-01-10T06:18:51;2.28;;;1.90;;
38435;SDS011;24220;48.168;14.024;2023-01-10T06:21:19;1.88;;;1.77;;
38435;SDS011;24220;48.168;14.024;2023-01-10T06:23:46;1.95;;;1.75;;
38435;SDS011;24220;48.168;14.024;2023-01-10T06:26:14;2.50;;;1.90;;
38435;SDS011;24220;48.168;14.024;2023-01-10T06:28:41;2.92;;;1.80;;
38435;SDS011;24220;48.168;14.024;2023-01-10T06:31:08;1.90;;;1.80;;
38435;SDS011;24220;48.168;14.024;2023-01-10T06:33:40;2.00;;;1.90;;
38435;SDS011;24220;48.168;14.024;2023-01-10T06:36:09;2.10;;;1.95;;
38435;SDS011;24220;48.168;14.024;2023-01-10T06:38:37;2.50;;;2.30;;
38435;SDS011;24220;48.168;14.024;2023-01-10T06:41:04;2.40;;;2.20;;
38435;SDS011;24220;48.168;14.024;2023-01-10T06:43:42;2.40;;;2.20;;
38435;SDS011;24220;48.168;14.024;2023-01-10T06:46:12;2.33;;;2.10;;
38435;SDS011;24220;48.168;14.024;2023-01-10T06:48:42;2.50;;;2.30;;
38435;SDS011;24220;48.168;14.024;2023-01-10T06:51:11;2.55;;;2.35;;
38435;SDS011;24220;48.168;14.024;2023-01-10T06:53:40;2.55;;;2.28;;
38435;SDS011;24220;48.168;14.024;2023-01-10T06:56:10;2.50;;;2.30;;
38435;SDS011;24220;48.168;14.024;2023-01-10T06:58:38;3.20;;;2.60;;
38435;SDS011;24220;48.168;14.024;2023-01-10T07:01:06;2.90;;;2.60;;
38435;SDS011;24220;48.168;14.024;2023-01-10T07:03:39;4.18;;;2.60;;
38435;SDS011;24220;48.168;14.024;2023-01-10T07:06:07;2.78;;;2.20;;
38435;SDS011;24220;48.168;14.024;2023-01-10T07:08:40;2.30;;;2.10;;
38435;SDS011;24220;48.168;14.024;2023-01-10T07:11:11;3.88;;;2.85;;
38435;SDS011;24220;48.168;14.024;2023-01-10T07:13:41;3.50;;;3.10;;
38435;SDS011;24220;48.168;14.024;2023-01-10T07:16:12;2.92;;;2.65;;
38435;SDS011;24220;48.168;14.024;2023-01-10T07:18:42;3.70;;;2.78;;
38435;SDS011;24220;48.168;14.024;2023-01-10T07:21:09;3.20;;;2.55;;
38435;SDS011;24220;48.168;14.024;2023-01-10T07:23:39;2.60;;;2.40;;
38435;SDS011;24220;48.168;14.024;2023-01-10T07:26:07;3.13;;;2.83;;
38435;SDS011;24220;48.168;14.024;2023-01-10T07:28:44;2.75;;;2.47;;
38435;SDS011;24220;48.168;14.024;2023-01-10T07:31:19;2.78;;;2.58;;
38435;SDS011;24220;48.168;14.024;2023-01-10T07:33:50;3.25;;;2.63;;
38435;SDS011;24220;48.168;14.024;2023-01-10T07:36:18;3.15;;;2.65;;
38435;SDS011;24220;48.168;14.024;2023-01-10T07:38:46;3.20;;;2.90;;
38435;SDS011;24220;48.168;14.024;2023-01-10T07:41:13;3.05;;;2.75;;
38435;SDS011;24220;48.168;14.024;2023-01-10T07:43:43;3.38;;;3.08;;
38435;SDS011;24220;48.168;14.024;2023-01-10T07:46:10;3.10;;;2.80;;
38435;SDS011;24220;48.168;14.024;2023-01-10T07:48:38;3.25;;;2.78;;
38435;SDS011;24220;48.168;14.024;2023-01-10T07:51:09;3.47;;;2.80;;
38435;SDS011;24220;48.168;14.024;2023-01-10T07:53:37;2.63;;;2.42;;
38435;SDS011;24220;48.168;14.024;2023-01-10T07:56:04;2.88;;;2.58;;
38435;SDS011;24220;48.168;14.024;2023-01-10T07:58:32;3.40;;;3.10;;
38435;SDS011;24220;48.168;14.024;2023-01-10T08:01:00;3.65;;;2.70;;
38435;SDS011;24220;48.168;14.024;2023-01-10T08:03:29;3.58;;;3.03;;
38435;SDS011;24220;48.168;14.024;2023-01-10T08:08:28;5.85;;;4.07;;
38435;SDS011;24220;48.168;14.024;2023-01-10T08:11:01;4.97;;;3.53;;
38435;SDS011;24220;48.168;14.024;2023-01-10T08:13:31;3.47;;;3.17;;
38435;SDS011;24220;48.168;14.024;2023-01-10T08:15:58;3.80;;;3.10;;
38435;SDS011;24220;48.168;14.024;2023-01-10T08:18:29;3.10;;;2.80;;
38435;SDS011;24220;48.168;14.024;2023-01-10T08:20:57;3.42;;;3.13;;
38435;SDS011;24220;48.168;14.024;2023-01-10T08:23:24;3.20;;;2.90;;
38435;SDS011;24220;48.168;14.024;2023-01-10T08:25:52;3.55;;;2.90;;
38435;SDS011;24220;48.168;14.024;2023-01-10T08:28:20;3.30;;;3.00;;
38435;SDS011;24220;48.168;14.024;2023-01-10T08:30:48;3.20;;;2.80;;
38435;SDS011;24220;48.168;14.024;2023-01-10T08:33:16;3.40;;;2.90;;
38435;SDS011;24220;48.168;14.024;2023-01-10T08:35:46;3.13;;;2.88;;
38435;SDS011;24220;48.168;14.024;2023-01-10T08:38:16;2.95;;;2.72;;
38435;SDS011;24220;48.168;14.024;2023-01-10T08:40:43;2.90;;;2.70;;
38435;SDS011;24220;48.168;14.024;2023-01-10T08:43:15;2.90;;;2.70;;
38435;SDS011;24220;48.168;14.024;2023-01-10T08:45:43;3.50;;;2.70;;
38435;SDS011;24220;48.168;14.024;2023-01-10T08:48:10;3.20;;;2.75;;
38435;SDS011;24220;48.168;14.024;2023-01-10T08:50:37;3.30;;;2.83;;
38435;SDS011;24220;48.168;14.024;2023-01-10T08:53:05;3.13;;;2.88;;
38435;SDS011;24220;48.168;14.024;2023-01-10T08:55:32;4.10;;;2.92;;
38435;SDS011;24220;48.168;14.024;2023-01-10T08:58:03;3.85;;;3.55;;
38435;SDS011;24220;48.168;14.024;2023-01-10T09:00:32;3.28;;;2.83;;
38435;SDS011;24220;48.168;14.024;2023-01-10T09:03:04;3.65;;;3.13;;
38435;SDS011;24220;48.168;14.024;2023-01-10T09:05:34;3.13;;;2.92;;
38435;SDS011;24220;48.168;14.024;2023-01-10T09:08:02;3.60;;;3.30;;
38435;SDS011;24220;48.168;14.024;2023-01-10T09:10:30;3.85;;;3.55;;
38435;SDS011;24220;48.168;14.024;2023-01-10T09:12:57;3.65;;;3.25;;
38435;SDS011;24220;48.168;14.024;2023-01-10T09:15:28;3.95;;;3.55;;
38435;SDS011;24220;48.168;14.024;2023-01-10T09:18:00;3.70;;;3.40;;
38435;SDS011;24220;48.168;14.024;2023-01-10T09:20:30;4.90;;;3.90;;
38435;SDS011;24220;48.168;14.024;2023-01-10T09:23:06;3.40;;;3.10;;
38435;SDS011;24220;48.168;14.024;2023-01-10T09:25:38;4.20;;;3.75;;
38435;SDS011;24220;48.168;14.024;2023-01-10T09:28:09;4.03;;;3.63;;
38435;SDS011;24220;48.168;14.024;2023-01-10T09:30:37;4.93;;;3.42;;
38435;SDS011;24220;48.168;14.024;2023-01-10T09:33:05;3.83;;;3.53;;
38435;SDS011;24220;48.168;14.024;2023-01-10T09:35:36;4.35;;;3.35;;
38435;SDS011;24220;48.168;14.024;2023-01-10T09:38:05;3.70;;;3.40;;
38435;SDS011;24220;48.168;14.024;2023-01-10T09:49:18;3.72;;;3.00;;
38435;SDS011;24220;48.168;14.024;2023-01-10T09:51:52;3.35;;;2.70;;
38435;SDS011;24220;48.168;14.024;2023-01-10T09:56:53;7.80;;;4.70;;
38435;SDS011;24220;48.168;14.024;2023-01-10T09:59:23;6.88;;;4.45;;
38435;SDS011;24220;48.168;14.024;2023-01-10T10:01:53;7.45;;;4.45;;
38435;SDS011;24220;48.168;14.024;2023-01-10T10:04:33;3.03;;;2.72;;
38435;SDS011;24220;48.168;14.024;2023-01-10T10:07:04;3.13;;;2.83;;
38435;SDS011;24220;48.168;14.024;2023-01-10T10:09:39;3.25;;;2.80;;
38435;SDS011;24220;48.168;14.024;2023-01-10T10:12:29;2.75;;;2.50;;
38435;SDS011;24220;48.168;14.024;2023-01-10T10:20:34;3.72;;;2.85;;
38435;SDS011;24220;48.168;14.024;2023-01-10T10:25:53;3.15;;;2.38;;
38435;SDS011;24220;48.168;14.024;2023-01-10T10:35:19;2.70;;;2.50;;
38435;SDS011;24220;48.168;14.024;2023-01-10T10:38:16;3.40;;;2.50;;
38435;SDS011;24220;48.168;14.024;2023-01-10T10:40:50;2.90;;;2.70;;
38435;SDS011;24220;48.168;14.024;2023-01-10T10:43:25;4.00;;;2.70;;
38435;SDS011;24220;48.168;14.024;2023-01-10T10:46:05;2.70;;;2.50;;
38435;SDS011;24220;48.168;14.024;2023-01-10T10:48:39;2.80;;;2.60;;
38435;SDS011;24220;48.168;14.024;2023-01-10T10:51:18;2.97;;;2.78;;
38435;SDS011;24220;48.168;14.024;2023-01-10T10:54:03;3.63;;;3.10;;
38435;SDS011;24220;48.168;14.024;2023-01-10T10:56:33;4.22;;;3.35;;
38435;SDS011;24220;48.168;14.024;2023-01-10T10:59:02;6.03;;;3.13;;
38435;SDS011;24220;48.168;14.024;2023-01-10T11:01:31;4.78;;;3.28;;
38435;SDS011;24220;48.168;14.024;2023-01-10T11:04:02;3.45;;;3.15;;
38435;SDS011;24220;48.168;14.024;2023-01-10T11:06:36;5.00;;;3.33;;
38435;SDS011;24220;48.168;14.024;2023-01-10T11:09:06;4.45;;;3.42;;
38435;SDS011;24220;48.168;14.024;2023-01-10T11:11:35;3.42;;;3.13;;
38435;SDS011;24220;48.168;14.024;2023-01-10T11:14:07;3.30;;;3.00;;
38435;SDS011;24220;48.168;14.024;2023-01-10T11:16:41;4.15;;;3.67;;
38435;SDS011;24220;48.168;14.024;2023-01-10T11:19:15;3.70;;;3.28;;
38435;SDS011;24220;48.168;14.024;2023-01-10T11:21:48;3.85;;;3.53;;
38435;SDS011;24220;48.168;14.024;2023-01-10T11:24:20;3.15;;;2.95;;
38435;SDS011;24220;48.168;14.024;2023-01-10T11:26:54;6.63;;;3.40;;
38435;SDS011;24220;48.168;14.024;2023-01-10T11:29:31;4.05;;;3.63;;
38435;SDS011;24220;48.168;14.024;2023-01-10T11:32:08;3.92;;;3.55;;
38435;SDS011;24220;48.168;14.024;2023-01-10T11:34:49;4.10;;;3.70;;
38435;SDS011;24220;48.168;14.024;2023-01-10T11:37:20;6.72;;;4.28;;
38435;SDS011;24220;48.168;14.024;2023-01-10T11:40:06;4.50;;;4.10;;
38435;SDS011;24220;48.168;14.024;2023-01-10T11:42:41;4.30;;;3.90;;
38435;SDS011;24220;48.168;14.024;2023-01-10T11:47:46;8.02;;;4.97;;
38435;SDS011;24220;48.168;14.024;2023-01-10T11:50:26;4.72;;;4.32;;
38435;SDS011;24220;48.168;14.024;2023-01-10T11:52:58;4.80;;;4.10;;
38435;SDS011;24220;48.168;14.024;2023-01-10T11:55:28;4.60;;;4.10;;
38435;SDS011;24220;48.168;14.024;2023-01-10T12:00:32;5.43;;;4.60;;
38435;SDS011;24220;48.168;14.024;2023-01-10T12:03:13;5.45;;;4.72;;
38435;SDS011;24220;48.168;14.024;2023-01-10T12:05:52;6.55;;;4.90;;
38435;SDS011;24220;48.168;14.024;2023-01-10T12:08:43;4.60;;;4.20;;
38435;SDS011;24220;48.168;14.024;2023-01-10T12:13:45;6.07;;;4.68;;
38435;SDS011;24220;48.168;14.024;2023-01-10T12:18:56;4.70;;;4.22;;
38435;SDS011;24220;48.168;14.024;2023-01-10T12:24:11;4.82;;;4.30;;
38435;SDS011;24220;48.168;14.024;2023-01-10T12:26:45;4.68;;;4.18;;
38435;SDS011;24220;48.168;14.024;2023-01-10T12:29:27;4.38;;;3.97;;
38435;SDS011;24220;48.168;14.024;2023-01-10T12:32:05;4.43;;;4.03;;
38435;SDS011;24220;48.168;14.024;2023-01-10T12:34:41;4.03;;;3.70;;
38435;SDS011;24220;48.168;14.024;2023-01-10T12:37:28;3.97;;;3.13;;
38435;SDS011;24220;48.168;14.024;2023-01-10T12:40:29;4.82;;;3.03;;
38435;SDS011;24220;48.168;14.024;2023-01-10T12:43:17;3.20;;;2.90;;
38435;SDS011;24220;48.168;14.024;2023-01-10T12:46:33;4.18;;;2.55;;
38435;SDS011;24220;48.168;14.024;2023-01-10T12:49:53;2.78;;;2.40;;
38435;SDS011;24220;48.168;14.024;2023-01-10T12:55:28;4.88;;;2.67;;
38435;SDS011;24220;48.168;14.024;2023-01-10T12:58:01;3.00;;;2.63;;
38435;SDS011;24220;48.168;14.024;2023-01-10T13:00:38;5.13;;;3.38;;
38435;SDS011;24220;48.168;14.024;2023-01-10T13:03:16;6.28;;;3.13;;
38435;SDS011;24220;48.168;14.024;2023-01-10T13:08:18;2.58;;;1.80;;
38435;SDS011;24220;48.168;14.024;2023-01-10T13:10:49;3.03;;;1.90;;
38435;SDS011;24220;48.168;14.024;2023-01-10T13:13:31;1.50;;;1.40;;
38435;SDS011;24220;48.168;14.024;2023-01-10T13:21:37;2.15;;;1.90;;
38435;SDS011;24220;48.168;14.024;2023-01-10T13:26:54;2.55;;;2.08;;
38435;SDS011;24220;48.168;14.024;2023-01-10T13:29:29;3.30;;;2.20;;
38435;SDS011;24220;48.168;14.024;2023-01-10T13:37:08;2.88;;;2.30;;
38435;SDS011;24220;48.168;14.024;2023-01-10T13:39:39;5.75;;;2.80;;
38435;SDS011;24220;48.168;14.024;2023-01-10T13:42:26;4.07;;;2.80;;
38435;SDS011;24220;48.168;14.024;2023-01-10T13:47:58;4.13;;;2.70;;
38435;SDS011;24220;48.168;14.024;2023-01-10T14:01:25;3.83;;;2.92;;
38435;SDS011;24220;48.168;14.024;2023-01-10T14:04:21;5.22;;;3.00;;
38435;SDS011;24220;48.168;14.024;2023-01-10T14:06:58;4.47;;;2.88;;
38435;SDS011;24220;48.168;14.024;2023-01-10T14:09:31;3.10;;;2.88;;
38435;SDS011;24220;48.168;14.024;2023-01-10T14:12:03;4.55;;;2.78;;
38435;SDS011;24220;48.168;14.024;2023-01-10T14:19:46;3.67;;;3.08;;
38435;SDS011;24220;48.168;14.024;2023-01-10T14:22:24;3.00;;;2.72;;
38435;SDS011;24220;48.168;14.024;2023-01-10T14:24:57;4.10;;;3.00;;
38435;SDS011;24220;48.168;14.024;2023-01-10T14:27:36;4.10;;;3.28;;
38435;SDS011;24220;48.168;14.024;2023-01-10T14:30:21;4.30;;;3.15;;
38435;SDS011;24220;48.168;14.024;2023-01-10T14:33:03;6.30;;;3.15;;
38435;SDS011;24220;48.168;14.024;2023-01-10T14:35:44;4.50;;;2.72;;
38435;SDS011;24220;48.168;14.024;2023-01-10T14:38:17;5.93;;;3.13;;
38435;SDS011;24220;48.168;14.024;2023-01-10T14:40:59;4.40;;;2.65;;
38435;SDS011;24220;48.168;14.024;2023-01-10T14:43:44;4.72;;;2.60;;
38435;SDS011;24220;48.168;14.024;2023-01-10T14:46:21;4.18;;;2.80;;
38435;SDS011;24220;48.168;14.024;2023-01-10T14:48:54;6.60;;;3.30;;
38435;SDS011;24220;48.168;14.024;2023-01-10T14:51:31;5.70;;;3.05;;
38435;SDS011;24220;48.168;14.024;2023-01-10T14:54:08;6.22;;;3.08;;
38435;SDS011;24220;48.168;14.024;2023-01-10T14:56:41;6.35;;;3.05;;
38435;SDS011;24220;48.168;14.024;2023-01-10T15:01:55;6.28;;;2.92;;
38435;SDS011;24220;48.168;14.024;2023-01-10T15:04:26;5.28;;;2.72;;
38435;SDS011;24220;48.168;14.024;2023-01-10T15:06:59;5.90;;;2.58;;
38435;SDS011;24220;48.168;14.024;2023-01-10T15:09:33;7.82;;;3.25;;
38435;SDS011;24220;48.168;14.024;2023-01-10T15:12:03;6.50;;;2.30;;
38435;SDS011;24220;48.168;14.024;2023-01-10T15:14:33;5.28;;;2.38;;
38435;SDS011;24220;48.168;14.024;2023-01-10T15:19:36;5.63;;;2.80;;
38435;SDS011;24220;48.168;14.024;2023-01-10T15:22:22;5.82;;;2.67;;
38435;SDS011;24220;48.168;14.024;2023-01-10T15:27:50;6.28;;;2.50;;
38435;SDS011;24220;48.168;14.024;2023-01-10T15:30:27;6.03;;;1.95;;
38435;SDS011;24220;48.168;14.024;2023-01-10T15:33:09;7.32;;;2.10;;
38435;SDS011;24220;48.168;14.024;2023-01-10T15:35:40;5.70;;;2.63;;
38435;SDS011;24220;48.168;14.024;2023-01-10T15:38:15;4.68;;;2.00;;
38435;SDS011;24220;48.168;14.024;2023-01-10T15:40:56;5.47;;;2.05;;
38435;SDS011;24220;48.168;14.024;2023-01-10T15:43:29;5.07;;;1.90;;
38435;SDS011;24220;48.168;14.024;2023-01-10T15:46:03;9.13;;;3.40;;
38435;SDS011;24220;48.168;14.024;2023-01-10T15:48:36;6.30;;;2.67;;
38435;SDS011;24220;48.168;14.024;2023-01-10T15:56:40;4.55;;;2.15;;
38435;SDS011;24220;48.168;14.024;2023-01-10T15:59:21;7.53;;;2.90;;
38435;SDS011;24220;48.168;14.024;2023-01-10T16:04:48;7.10;;;3.28;;
38435;SDS011;24220;48.168;14.024;2023-01-10T16:07:29;8.35;;;2.63;;
38435;SDS011;24220;48.168;14.024;2023-01-10T16:10:04;4.43;;;2.47;;
38435;SDS011;24220;48.168;14.024;2023-01-10T16:15:25;5.97;;;3.30;;
38435;SDS011;24220;48.168;14.024;2023-01-10T16:17:54;5.47;;;2.78;;
38435;SDS011;24220;48.168;14.024;2023-01-10T16:20:24;8.95;;;2.83;;
38435;SDS011;24220;48.168;14.024;2023-01-10T16:22:54;5.95;;;2.63;;
38435;SDS011;24220;48.168;14.024;2023-01-10T16:25:32;5.75;;;2.70;;
38435;SDS011;24220;48.168;14.024;2023-01-10T16:28:04;5.40;;;2.95;;
38435;SDS011;24220;48.168;14.024;2023-01-10T16:30:33;4.68;;;2.28;;
38435;SDS011;24220;48.168;14.024;2023-01-10T16:33:09;4.28;;;2.20;;
38435;SDS011;24220;48.168;14.024;2023-01-10T16:35:52;4.70;;;2.28;;
38435;SDS011;24220;48.168;14.024;2023-01-10T16:38:22;6.18;;;3.03;;
38435;SDS011;24220;48.168;14.024;2023-01-10T16:41:01;7.75;;;2.80;;
38435;SDS011;24220;48.168;14.024;2023-01-10T16:43:48;5.85;;;2.70;;
38435;SDS011;24220;48.168;14.024;2023-01-10T16:46:16;6.43;;;2.47;;
38435;SDS011;24220;48.168;14.024;2023-01-10T16:48:46;6.03;;;2.75;;
38435;SDS011;24220;48.168;14.024;2023-01-10T16:53:44;5.20;;;2.63;;
38435;SDS011;24220;48.168;14.024;2023-01-10T16:56:16;8.18;;;2.88;;
38435;SDS011;24220;48.168;14.024;2023-01-10T16:58:54;8.05;;;3.20;;
38435;SDS011;24220;48.168;14.024;2023-01-10T17:01:23;8.82;;;3.60;;
38435;SDS011;24220;48.168;14.024;2023-01-10T17:03:56;7.13;;;3.05;;
38435;SDS011;24220;48.168;14.024;2023-01-10T17:06:24;9.00;;;4.30;;
38435;SDS011;24220;48.168;14.024;2023-01-10T17:08:51;10.38;;;4.82;;
38435;SDS011;24220;48.168;14.024;2023-01-10T17:11:24;14.15;;;7.05;;
38435;SDS011;24220;48.168;14.024;2023-01-10T17:14:00;12.52;;;5.80;;
38435;SDS011;24220;48.168;14.024;2023-01-10T17:16:30;13.75;;;6.47;;
38435;SDS011;24220;48.168;14.024;2023-01-10T17:18:59;10.15;;;4.65;;